sensor_id;sensor_type;location;lat;lon;timestamp;pressure;altitude;pressure_sealevel;temperature;humidity
74552;BME280;63025;55.472;38.432;2023-05-16T00:00:19;100866.59;;;9.32;66.08
74552;BME280;63025;55.472;38.432;2023-05-16T00:02:45;100861.59;;;9.29;66.84
74552;BME280;63025;55.472;38.432;2023-05-16T00:05:12;100868.28;;;9.33;66.34
74552;BME280;63025;55.472;38.432;2023-05-16T00:07:42;100869.75;;;9.36;66.21
74552;BME280;63025;55.472;38.432;2023-05-16T00:10:09;100864.59;;;9.34;66.42
74552;BME280;63025;55.472;38.432;2023-05-16T00:12:35;100866.44;;;9.34;66.52
74552;BME280;63025;55.472;38.432;2023-05-16T00:15:02;100869.13;;;9.34;66.31
74552;BME280;63025;55.472;38.432;2023-05-16T00:17:30;100862.91;;;9.33;66.21
74552;BME280;63025;55.472;38.432;2023-05-16T00:19:56;100869.47;;;9.31;66.62
74552;BME280;63025;55.472;38.432;2023-05-16T00:22:26;100866.47;;;9.26;66.35
74552;BME280;63025;55.472;38.432;2023-05-16T00:24:52;100868.06;;;9.20;66.63
74552;BME280;63025;55.472;38.432;2023-05-16T00:27:18;100866.13;;;9.06;67.21
74552;BME280;63025;55.472;38.432;2023-05-16T00:29:44;100865.19;;;8.99;67.32
74552;BME280;63025;55.472;38.432;2023-05-16T00:32:10;100857.50;;;8.96;67.11
74552;BME280;63025;55.472;38.432;2023-05-16T00:34:35;100856.72;;;8.87;67.37
74552;BME280;63025;55.472;38.432;2023-05-16T00:37:01;100857.91;;;8.84;67.55
74552;BME280;63025;55.472;38.432;2023-05-16T00:39:27;100870.66;;;8.82;68.10
74552;BME280;63025;55.472;38.432;2023-05-16T00:41:55;100871.03;;;8.79;68.25
74552;BME280;63025;55.472;38.432;2023-05-16T00:44:22;100870.72;;;8.74;67.49
74552;BME280;63025;55.472;38.432;2023-05-16T00:46:48;100871.09;;;8.71;68.45
74552;BME280;63025;55.472;38.432;2023-05-16T00:49:14;100871.59;;;8.67;68.17
74552;BME280;63025;55.472;38.432;2023-05-16T00:51:40;100865.75;;;8.63;68.20
74552;BME280;63025;55.472;38.432;2023-05-16T00:54:06;100865.47;;;8.58;68.65
74552;BME280;63025;55.472;38.432;2023-05-16T00:56:32;100861.94;;;8.58;68.50
74552;BME280;63025;55.472;38.432;2023-05-16T00:58:58;100864.13;;;8.54;68.60
74552;BME280;63025;55.472;38.432;2023-05-16T01:01:26;100864.69;;;8.50;68.65
74552;BME280;63025;55.472;38.432;2023-05-16T01:03:52;100872.88;;;8.48;68.90
74552;BME280;63025;55.472;38.432;2023-05-16T01:06:19;100867.38;;;8.41;68.80
74552;BME280;63025;55.472;38.432;2023-05-16T01:08:45;100877.13;;;8.34;68.80
74552;BME280;63025;55.472;38.432;2023-05-16T01:16:45;100866.94;;;8.22;69.37
74552;BME280;63025;55.472;38.432;2023-05-16T01:19:50;100863.97;;;8.17;69.22
74552;BME280;63025;55.472;38.432;2023-05-16T01:27:26;100857.81;;;8.08;69.79
74552;BME280;63025;55.472;38.432;2023-05-16T01:29:55;100871.38;;;8.06;69.90
74552;BME280;63025;55.472;38.432;2023-05-16T01:32:21;100877.72;;;8.05;70.49
74552;BME280;63025;55.472;38.432;2023-05-16T01:34:49;100857.31;;;8.04;70.44
74552;BME280;63025;55.472;38.432;2023-05-16T01:37:23;100864.34;;;8.05;70.24
74552;BME280;63025;55.472;38.432;2023-05-16T01:40:03;100862.00;;;8.02;70.03
74552;BME280;63025;55.472;38.432;2023-05-16T01:42:36;100861.34;;;8.00;70.15
74552;BME280;63025;55.472;38.432;2023-05-16T01:45:25;100859.03;;;7.97;69.75
74552;BME280;63025;55.472;38.432;2023-05-16T01:48:15;100864.38;;;7.97;69.83
74552;BME280;63025;55.472;38.432;2023-05-16T01:50:45;100859.19;;;7.96;69.90
74552;BME280;63025;55.472;38.432;2023-05-16T01:53:19;100856.97;;;7.99;69.38
74552;BME280;63025;55.472;38.432;2023-05-16T01:55:50;100861.66;;;8.05;69.79
74552;BME280;63025;55.472;38.432;2023-05-16T01:58:19;100860.00;;;8.04;69.14
74552;BME280;63025;55.472;38.432;2023-05-16T02:00:47;100855.31;;;8.06;69.28
74552;BME280;63025;55.472;38.432;2023-05-16T02:03:13;100849.78;;;8.08;69.81
74552;BME280;63025;55.472;38.432;2023-05-16T02:05:38;100867.16;;;8.12;69.21
74552;BME280;63025;55.472;38.432;2023-05-16T02:08:04;100871.03;;;8.09;69.86
74552;BME280;63025;55.472;38.432;2023-05-16T02:10:30;100874.00;;;8.15;70.32
74552;BME280;63025;55.472;38.432;2023-05-16T02:12:59;100879.69;;;8.20;70.25
74552;BME280;63025;55.472;38.432;2023-05-16T02:15:25;100882.50;;;8.26;70.40
74552;BME280;63025;55.472;38.432;2023-05-16T02:17:51;100884.50;;;8.32;70.04
74552;BME280;63025;55.472;38.432;2023-05-16T02:20:17;100893.22;;;8.34;69.99
74552;BME280;63025;55.472;38.432;2023-05-16T02:22:43;100886.97;;;8.42;69.88
74552;BME280;63025;55.472;38.432;2023-05-16T02:25:13;100885.28;;;8.49;70.34
74552;BME280;63025;55.472;38.432;2023-05-16T02:27:40;100891.72;;;8.63;69.87
74552;BME280;63025;55.472;38.432;2023-05-16T02:30:11;100887.63;;;8.75;69.63
74552;BME280;63025;55.472;38.432;2023-05-16T02:32:40;100900.47;;;8.88;70.03
74552;BME280;63025;55.472;38.432;2023-05-16T02:35:07;100900.06;;;8.99;69.53
74552;BME280;63025;55.472;38.432;2023-05-16T02:37:33;100902.31;;;9.10;69.10
74552;BME280;63025;55.472;38.432;2023-05-16T02:39:59;100891.19;;;9.21;68.75
74552;BME280;63025;55.472;38.432;2023-05-16T02:42:25;100904.63;;;9.36;68.67
74552;BME280;63025;55.472;38.432;2023-05-16T02:44:51;100902.34;;;9.47;68.34
74552;BME280;63025;55.472;38.432;2023-05-16T02:47:17;100899.06;;;9.60;68.39
74552;BME280;63025;55.472;38.432;2023-05-16T02:49:43;100901.28;;;9.71;68.23
74552;BME280;63025;55.472;38.432;2023-05-16T02:52:09;100901.31;;;9.86;67.82
74552;BME280;63025;55.472;38.432;2023-05-16T02:54:35;100904.00;;;10.01;67.25
74552;BME280;63025;55.472;38.432;2023-05-16T02:57:00;100898.19;;;10.12;67.10
74552;BME280;63025;55.472;38.432;2023-05-16T02:59:26;100908.75;;;10.28;66.65
74552;BME280;63025;55.472;38.432;2023-05-16T03:01:52;100915.78;;;10.44;65.82
74552;BME280;63025;55.472;38.432;2023-05-16T03:04:18;100909.56;;;10.58;65.68
74552;BME280;63025;55.472;38.432;2023-05-16T03:06:44;100911.38;;;10.72;64.83
74552;BME280;63025;55.472;38.432;2023-05-16T03:09:10;100909.69;;;10.86;64.60
74552;BME280;63025;55.472;38.432;2023-05-16T03:11:36;100919.34;;;11.01;64.08
74552;BME280;63025;55.472;38.432;2023-05-16T03:14:01;100915.97;;;11.14;63.92
74552;BME280;63025;55.472;38.432;2023-05-16T03:16:27;100917.13;;;11.26;63.55
74552;BME280;63025;55.472;38.432;2023-05-16T03:18:53;100912.91;;;11.38;63.07
74552;BME280;63025;55.472;38.432;2023-05-16T03:21:19;100916.56;;;11.52;62.57
74552;BME280;63025;55.472;38.432;2023-05-16T03:23:45;100907.16;;;11.69;62.24
74552;BME280;63025;55.472;38.432;2023-05-16T03:26:10;100910.59;;;11.85;61.97
74552;BME280;63025;55.472;38.432;2023-05-16T03:28:36;100908.84;;;11.98;61.81
74552;BME280;63025;55.472;38.432;2023-05-16T03:31:02;100905.03;;;12.14;61.17
74552;BME280;63025;55.472;38.432;2023-05-16T03:33:28;100898.00;;;12.26;60.80
74552;BME280;63025;55.472;38.432;2023-05-16T03:35:53;100901.81;;;12.38;60.52
74552;BME280;63025;55.472;38.432;2023-05-16T03:38:19;100896.50;;;12.52;59.82
74552;BME280;63025;55.472;38.432;2023-05-16T03:40:46;100904.44;;;12.66;59.52
74552;BME280;63025;55.472;38.432;2023-05-16T03:43:13;100901.13;;;12.77;58.99
74552;BME280;63025;55.472;38.432;2023-05-16T03:45:38;100902.63;;;12.86;58.49
74552;BME280;63025;55.472;38.432;2023-05-16T03:48:05;100904.50;;;12.99;58.15
74552;BME280;63025;55.472;38.432;2023-05-16T03:50:30;100909.31;;;13.10;57.96
74552;BME280;63025;55.472;38.432;2023-05-16T03:52:56;100919.53;;;13.21;57.79
74552;BME280;63025;55.472;38.432;2023-05-16T03:55:22;100918.50;;;13.29;57.34
74552;BME280;63025;55.472;38.432;2023-05-16T03:57:48;100931.19;;;13.42;56.91
74552;BME280;63025;55.472;38.432;2023-05-16T04:00:15;100923.31;;;13.53;56.31
74552;BME280;63025;55.472;38.432;2023-05-16T04:02:41;100924.16;;;13.60;56.21
74552;BME280;63025;55.472;38.432;2023-05-16T04:05:10;100918.13;;;13.72;55.80
74552;BME280;63025;55.472;38.432;2023-05-16T04:07:36;100921.66;;;13.85;55.42
74552;BME280;63025;55.472;38.432;2023-05-16T04:10:03;100924.34;;;13.92;55.00
74552;BME280;63025;55.472;38.432;2023-05-16T04:12:32;100928.28;;;14.03;54.77
74552;BME280;63025;55.472;38.432;2023-05-16T04:14:58;100925.97;;;14.19;54.76
74552;BME280;63025;55.472;38.432;2023-05-16T04:17:24;100924.88;;;14.33;54.50
74552;BME280;63025;55.472;38.432;2023-05-16T04:19:50;100924.47;;;14.50;54.00
74552;BME280;63025;55.472;38.432;2023-05-16T04:22:16;100932.97;;;14.60;52.49
74552;BME280;63025;55.472;38.432;2023-05-16T04:24:42;100933.16;;;14.58;51.42
74552;BME280;63025;55.472;38.432;2023-05-16T04:27:07;100931.72;;;14.62;51.30
74552;BME280;63025;55.472;38.432;2023-05-16T04:29:34;100942.69;;;14.67;51.37
74552;BME280;63025;55.472;38.432;2023-05-16T04:32:00;100932.25;;;14.78;50.79
74552;BME280;63025;55.472;38.432;2023-05-16T04:34:27;100931.56;;;14.89;50.47
74552;BME280;63025;55.472;38.432;2023-05-16T04:36:54;100932.63;;;14.88;50.03
74552;BME280;63025;55.472;38.432;2023-05-16T04:39:20;100940.00;;;15.05;50.49
74552;BME280;63025;55.472;38.432;2023-05-16T04:41:46;100929.91;;;15.26;50.60
74552;BME280;63025;55.472;38.432;2023-05-16T04:44:12;100937.66;;;15.47;49.55
74552;BME280;63025;55.472;38.432;2023-05-16T04:46:38;100938.84;;;15.64;49.71
74552;BME280;63025;55.472;38.432;2023-05-16T04:49:04;100939.31;;;15.79;49.40
74552;BME280;63025;55.472;38.432;2023-05-16T04:51:31;100936.56;;;15.86;48.99
74552;BME280;63025;55.472;38.432;2023-05-16T04:53:58;100941.59;;;15.83;48.06
74552;BME280;63025;55.472;38.432;2023-05-16T04:56:24;100942.34;;;15.90;47.67
74552;BME280;63025;55.472;38.432;2023-05-16T04:58:52;100931.69;;;15.95;47.24
74552;BME280;63025;55.472;38.432;2023-05-16T05:01:19;100939.09;;;16.06;47.08
74552;BME280;63025;55.472;38.432;2023-05-16T05:03:45;100941.91;;;16.18;46.63
74552;BME280;63025;55.472;38.432;2023-05-16T05:06:11;100946.28;;;16.19;46.75
74552;BME280;63025;55.472;38.432;2023-05-16T05:08:37;100941.16;;;16.29;47.13
74552;BME280;63025;55.472;38.432;2023-05-16T05:11:02;100941.38;;;16.45;47.68
74552;BME280;63025;55.472;38.432;2023-05-16T05:13:28;100929.56;;;16.40;45.96
74552;BME280;63025;55.472;38.432;2023-05-16T05:15:54;100938.16;;;16.37;45.74
74552;BME280;63025;55.472;38.432;2023-05-16T05:18:20;100935.13;;;16.45;45.79
74552;BME280;63025;55.472;38.432;2023-05-16T05:20:46;100929.88;;;16.50;45.08
74552;BME280;63025;55.472;38.432;2023-05-16T05:23:11;100939.41;;;16.52;44.96
74552;BME280;63025;55.472;38.432;2023-05-16T05:25:38;100948.06;;;16.68;45.21
74552;BME280;63025;55.472;38.432;2023-05-16T05:28:04;100956.22;;;16.43;44.11
74552;BME280;63025;55.472;38.432;2023-05-16T05:30:30;100946.66;;;16.59;44.68
74552;BME280;63025;55.472;38.432;2023-05-16T05:32:56;100948.44;;;16.71;44.63
74552;BME280;63025;55.472;38.432;2023-05-16T05:35:21;100948.53;;;16.95;45.01
74552;BME280;63025;55.472;38.432;2023-05-16T05:37:47;100947.81;;;16.87;43.95
74552;BME280;63025;55.472;38.432;2023-05-16T05:40:13;100955.03;;;16.94;43.66
74552;BME280;63025;55.472;38.432;2023-05-16T05:42:39;100954.91;;;16.88;43.55
74552;BME280;63025;55.472;38.432;2023-05-16T05:45:05;100944.81;;;17.07;43.77
74552;BME280;63025;55.472;38.432;2023-05-16T05:47:32;100951.59;;;17.16;42.67
74552;BME280;63025;55.472;38.432;2023-05-16T05:49:58;100950.34;;;17.31;42.90
74552;BME280;63025;55.472;38.432;2023-05-16T05:52:24;100948.00;;;17.46;42.93
74552;BME280;63025;55.472;38.432;2023-05-16T05:54:50;100950.34;;;17.31;41.64
74552;BME280;63025;55.472;38.432;2023-05-16T05:57:16;100944.72;;;17.55;41.88
74552;BME280;63025;55.472;38.432;2023-05-16T05:59:42;100949.63;;;17.77;41.81
74552;BME280;63025;55.472;38.432;2023-05-16T06:02:07;100952.16;;;18.02;41.46
74552;BME280;63025;55.472;38.432;2023-05-16T06:04:33;100958.31;;;18.09;39.95
74552;BME280;63025;55.472;38.432;2023-05-16T06:06:59;100955.59;;;18.20;39.88
74552;BME280;63025;55.472;38.432;2023-05-16T06:09:25;100964.56;;;18.32;39.96
74552;BME280;63025;55.472;38.432;2023-05-16T06:11:51;100970.25;;;18.43;39.67
74552;BME280;63025;55.472;38.432;2023-05-16T06:14:16;100971.91;;;18.44;38.87
74552;BME280;63025;55.472;38.432;2023-05-16T06:16:42;100969.56;;;18.36;38.22
74552;BME280;63025;55.472;38.432;2023-05-16T06:19:08;100976.53;;;18.43;38.27
74552;BME280;63025;55.472;38.432;2023-05-16T06:21:34;100977.94;;;18.34;38.11
74552;BME280;63025;55.472;38.432;2023-05-16T06:24:00;100977.59;;;18.30;37.41
74552;BME280;63025;55.472;38.432;2023-05-16T06:26:26;100988.59;;;18.47;37.87
74552;BME280;63025;55.472;38.432;2023-05-16T06:28:51;100981.25;;;18.59;37.56
74552;BME280;63025;55.472;38.432;2023-05-16T06:31:17;100991.44;;;18.64;36.79
74552;BME280;63025;55.472;38.432;2023-05-16T06:33:43;100978.28;;;18.61;36.40
74552;BME280;63025;55.472;38.432;2023-05-16T06:36:09;100993.47;;;18.68;37.06
74552;BME280;63025;55.472;38.432;2023-05-16T06:38:35;100994.84;;;18.71;36.51
74552;BME280;63025;55.472;38.432;2023-05-16T06:41:01;100989.19;;;18.61;35.75
74552;BME280;63025;55.472;38.432;2023-05-16T06:43:27;100996.28;;;18.74;35.68
74552;BME280;63025;55.472;38.432;2023-05-16T06:45:53;100980.75;;;18.51;35.55
74552;BME280;63025;55.472;38.432;2023-05-16T06:48:19;100990.25;;;18.60;36.15
74552;BME280;63025;55.472;38.432;2023-05-16T06:50:48;100979.09;;;18.73;35.92
74552;BME280;63025;55.472;38.432;2023-05-16T06:53:17;100990.44;;;18.82;36.02
74552;BME280;63025;55.472;38.432;2023-05-16T06:55:43;100983.84;;;18.54;35.87
74552;BME280;63025;55.472;38.432;2023-05-16T06:58:09;100996.97;;;18.69;36.37
74552;BME280;63025;55.472;38.432;2023-05-16T07:00:35;100992.13;;;18.71;36.31
74552;BME280;63025;55.472;38.432;2023-05-16T07:03:01;100986.03;;;18.92;36.67
74552;BME280;63025;55.472;38.432;2023-05-16T07:05:28;100985.28;;;19.09;36.20
74552;BME280;63025;55.472;38.432;2023-05-16T07:07:54;100975.06;;;19.16;35.51
74552;BME280;63025;55.472;38.432;2023-05-16T07:10:20;100988.06;;;19.25;36.20
74552;BME280;63025;55.472;38.432;2023-05-16T07:12:46;100991.50;;;19.21;35.75
74552;BME280;63025;55.472;38.432;2023-05-16T07:15:13;100992.44;;;19.26;36.28
74552;BME280;63025;55.472;38.432;2023-05-16T07:17:39;100996.19;;;19.37;35.70
74552;BME280;63025;55.472;38.432;2023-05-16T07:20:06;100988.00;;;19.37;35.58
74552;BME280;63025;55.472;38.432;2023-05-16T07:22:33;100982.97;;;19.57;35.62
74552;BME280;63025;55.472;38.432;2023-05-16T07:24:58;100989.41;;;19.68;35.59
74552;BME280;63025;55.472;38.432;2023-05-16T07:27:26;100971.06;;;19.63;35.37
74552;BME280;63025;55.472;38.432;2023-05-16T07:29:52;100976.69;;;19.57;35.20
74552;BME280;63025;55.472;38.432;2023-05-16T07:32:18;100982.06;;;19.68;35.65
74552;BME280;63025;55.472;38.432;2023-05-16T07:34:45;100979.34;;;19.68;35.21
74552;BME280;63025;55.472;38.432;2023-05-16T07:37:11;100978.50;;;19.68;34.58
74552;BME280;63025;55.472;38.432;2023-05-16T07:39:38;100981.59;;;19.71;34.28
74552;BME280;63025;55.472;38.432;2023-05-16T07:42:08;100983.66;;;19.81;34.26
74552;BME280;63025;55.472;38.432;2023-05-16T07:44:34;100977.19;;;19.70;33.69
74552;BME280;63025;55.472;38.432;2023-05-16T07:47:01;100977.03;;;19.77;34.02
74552;BME280;63025;55.472;38.432;2023-05-16T07:49:27;100973.22;;;19.78;33.72
74552;BME280;63025;55.472;38.432;2023-05-16T07:51:54;100971.75;;;19.70;33.46
74552;BME280;63025;55.472;38.432;2023-05-16T07:54:20;100982.31;;;19.84;33.65
74552;BME280;63025;55.472;38.432;2023-05-16T07:56:46;100971.56;;;19.94;32.95
74552;BME280;63025;55.472;38.432;2023-05-16T07:59:12;100967.75;;;20.11;33.15
74552;BME280;63025;55.472;38.432;2023-05-16T08:01:39;100964.59;;;20.20;33.11
74552;BME280;63025;55.472;38.432;2023-05-16T08:04:05;100966.50;;;20.19;33.03
74552;BME280;63025;55.472;38.432;2023-05-16T08:06:31;100964.06;;;20.01;32.38
74552;BME280;63025;55.472;38.432;2023-05-16T08:08:57;100962.22;;;20.23;33.16
74552;BME280;63025;55.472;38.432;2023-05-16T08:11:22;100952.03;;;20.35;33.19
74552;BME280;63025;55.472;38.432;2023-05-16T08:13:48;100957.63;;;20.45;33.14
74552;BME280;63025;55.472;38.432;2023-05-16T08:16:14;100958.91;;;20.60;32.46
74552;BME280;63025;55.472;38.432;2023-05-16T08:18:40;100949.19;;;20.69;32.66
74552;BME280;63025;55.472;38.432;2023-05-16T08:21:07;100954.88;;;20.84;32.21
74552;BME280;63025;55.472;38.432;2023-05-16T08:23:33;100949.88;;;21.03;32.28
74552;BME280;63025;55.472;38.432;2023-05-16T08:26:00;100948.81;;;21.26;31.23
74552;BME280;63025;55.472;38.432;2023-05-16T08:28:28;100945.75;;;21.22;30.96
74552;BME280;63025;55.472;38.432;2023-05-16T08:30:54;100940.16;;;21.39;31.19
74552;BME280;63025;55.472;38.432;2023-05-16T08:33:21;100942.13;;;22.07;30.39
74552;BME280;63025;55.472;38.432;2023-05-16T08:35:49;100932.84;;;22.60;29.92
74552;BME280;63025;55.472;38.432;2023-05-16T08:38:18;100941.69;;;22.73;29.55
74552;BME280;63025;55.472;38.432;2023-05-16T08:40:45;100931.22;;;22.64;28.94
74552;BME280;63025;55.472;38.432;2023-05-16T08:43:11;100939.59;;;23.00;28.66
74552;BME280;63025;55.472;38.432;2023-05-16T08:45:39;100930.41;;;23.82;28.78
74552;BME280;63025;55.472;38.432;2023-05-16T08:48:06;100926.44;;;24.54;27.60
74552;BME280;63025;55.472;38.432;2023-05-16T08:50:33;100934.47;;;24.35;26.62
74552;BME280;63025;55.472;38.432;2023-05-16T08:53:04;100925.25;;;24.75;25.71
74552;BME280;63025;55.472;38.432;2023-05-16T08:55:32;100929.00;;;25.78;25.91
74552;BME280;63025;55.472;38.432;2023-05-16T08:57:59;100931.84;;;26.30;25.43
74552;BME280;63025;55.472;38.432;2023-05-16T09:00:26;100927.84;;;27.27;24.30
74552;BME280;63025;55.472;38.432;2023-05-16T09:02:52;100927.47;;;28.17;23.40
74552;BME280;63025;55.472;38.432;2023-05-16T09:05:18;100931.22;;;28.07;22.98
74552;BME280;63025;55.472;38.432;2023-05-16T09:07:45;100911.00;;;28.80;21.71
74552;BME280;63025;55.472;38.432;2023-05-16T09:10:11;100926.44;;;29.45;21.21
74552;BME280;63025;55.472;38.432;2023-05-16T09:12:41;100918.31;;;29.12;21.02
74552;BME280;63025;55.472;38.432;2023-05-16T09:15:09;100913.28;;;29.50;20.87
74552;BME280;63025;55.472;38.432;2023-05-16T09:17:45;100919.63;;;29.96;19.83
74552;BME280;63025;55.472;38.432;2023-05-16T09:20:18;100915.25;;;30.34;20.25
74552;BME280;63025;55.472;38.432;2023-05-16T09:22:52;100904.28;;;30.69;19.95
74552;BME280;63025;55.472;38.432;2023-05-16T09:25:20;100912.88;;;31.24;19.25
74552;BME280;63025;55.472;38.432;2023-05-16T09:27:46;100906.66;;;31.27;18.49
74552;BME280;63025;55.472;38.432;2023-05-16T09:30:14;100917.09;;;31.04;18.54
74552;BME280;63025;55.472;38.432;2023-05-16T09:32:43;100914.50;;;31.51;18.68
74552;BME280;63025;55.472;38.432;2023-05-16T09:35:14;100908.94;;;32.61;18.50
74552;BME280;63025;55.472;38.432;2023-05-16T09:37:45;100912.53;;;32.32;17.28
74552;BME280;63025;55.472;38.432;2023-05-16T09:40:11;100912.53;;;32.62;17.46
74552;BME280;63025;55.472;38.432;2023-05-16T09:42:37;100906.34;;;31.46;18.43
74552;BME280;63025;55.472;38.432;2023-05-16T09:45:03;100891.44;;;31.16;18.95
74552;BME280;63025;55.472;38.432;2023-05-16T09:47:30;100908.72;;;31.90;18.27
74552;BME280;63025;55.472;38.432;2023-05-16T09:49:57;100900.56;;;32.61;17.75
74552;BME280;63025;55.472;38.432;2023-05-16T09:52:26;100893.72;;;32.59;17.21
74552;BME280;63025;55.472;38.432;2023-05-16T09:54:53;100895.38;;;32.22;17.56
74552;BME280;63025;55.472;38.432;2023-05-16T09:57:19;100896.22;;;32.14;17.32
74552;BME280;63025;55.472;38.432;2023-05-16T09:59:46;100888.44;;;31.90;18.10
74552;BME280;63025;55.472;38.432;2023-05-16T10:02:13;100888.69;;;32.81;18.21
74552;BME280;63025;55.472;38.432;2023-05-16T10:04:39;100888.03;;;33.80;17.24
74552;BME280;63025;55.472;38.432;2023-05-16T10:07:06;100890.06;;;33.71;17.31
74552;BME280;63025;55.472;38.432;2023-05-16T10:09:35;100885.38;;;33.96;16.48
74552;BME280;63025;55.472;38.432;2023-05-16T10:12:02;100890.88;;;34.04;15.96
74552;BME280;63025;55.472;38.432;2023-05-16T10:14:35;100888.22;;;33.75;16.56
74552;BME280;63025;55.472;38.432;2023-05-16T10:17:02;100883.63;;;35.01;16.07
74552;BME280;63025;55.472;38.432;2023-05-16T10:19:31;100876.91;;;36.01;15.67
74552;BME280;63025;55.472;38.432;2023-05-16T10:21:59;100887.19;;;35.97;15.08
74552;BME280;63025;55.472;38.432;2023-05-16T10:24:32;100880.34;;;36.10;14.62
74552;BME280;63025;55.472;38.432;2023-05-16T10:26:58;100869.47;;;35.21;14.95
74552;BME280;63025;55.472;38.432;2023-05-16T10:29:24;100867.41;;;34.42;15.04
74552;BME280;63025;55.472;38.432;2023-05-16T10:31:51;100860.13;;;34.89;15.73
74552;BME280;63025;55.472;38.432;2023-05-16T10:34:17;100857.41;;;34.41;16.40
74552;BME280;63025;55.472;38.432;2023-05-16T10:36:44;100854.25;;;34.42;16.07
74552;BME280;63025;55.472;38.432;2023-05-16T10:39:11;100861.41;;;34.92;16.80
74552;BME280;63025;55.472;38.432;2023-05-16T10:41:38;100860.06;;;34.49;16.02
74552;BME280;63025;55.472;38.432;2023-05-16T10:44:12;100855.75;;;34.64;16.11
74552;BME280;63025;55.472;38.432;2023-05-16T10:46:40;100858.66;;;34.80;16.45
74552;BME280;63025;55.472;38.432;2023-05-16T10:49:23;100862.50;;;34.75;16.13
74552;BME280;63025;55.472;38.432;2023-05-16T10:54:39;100850.09;;;35.56;15.48
74552;BME280;63025;55.472;38.432;2023-05-16T10:57:08;100856.53;;;35.73;15.86
74552;BME280;63025;55.472;38.432;2023-05-16T10:59:42;100844.84;;;35.39;15.34
74552;BME280;63025;55.472;38.432;2023-05-16T11:02:28;100849.88;;;34.93;15.50
74552;BME280;63025;55.472;38.432;2023-05-16T11:04:59;100850.88;;;35.41;15.81
74552;BME280;63025;55.472;38.432;2023-05-16T11:07:31;100850.16;;;36.03;15.67
74552;BME280;63025;55.472;38.432;2023-05-16T11:10:10;100847.63;;;36.14;15.59
74552;BME280;63025;55.472;38.432;2023-05-16T11:12:44;100835.34;;;37.24;14.61
74552;BME280;63025;55.472;38.432;2023-05-16T11:17:43;100827.19;;;35.23;15.31
74552;BME280;63025;55.472;38.432;2023-05-16T11:20:29;100831.78;;;33.45;16.68
74552;BME280;63025;55.472;38.432;2023-05-16T11:25:43;100827.16;;;31.69;18.46
74552;BME280;63025;55.472;38.432;2023-05-16T11:28:12;100823.25;;;33.29;18.27
74552;BME280;63025;55.472;38.432;2023-05-16T11:30:43;100819.31;;;33.75;17.43
74552;BME280;63025;55.472;38.432;2023-05-16T11:33:10;100822.63;;;34.02;17.37
74552;BME280;63025;55.472;38.432;2023-05-16T11:35:37;100816.88;;;33.08;17.84
74552;BME280;63025;55.472;38.432;2023-05-16T11:38:03;100812.75;;;32.14;18.62
74552;BME280;63025;55.472;38.432;2023-05-16T11:40:29;100813.47;;;31.47;18.67
74552;BME280;63025;55.472;38.432;2023-05-16T11:42:59;100809.94;;;31.84;17.71
74552;BME280;63025;55.472;38.432;2023-05-16T11:45:28;100805.66;;;31.06;18.85
74552;BME280;63025;55.472;38.432;2023-05-16T11:48:00;100806.88;;;29.51;19.66
74552;BME280;63025;55.472;38.432;2023-05-16T11:50:26;100801.09;;;28.95;20.50
74552;BME280;63025;55.472;38.432;2023-05-16T11:52:53;100798.22;;;29.31;20.77
74552;BME280;63025;55.472;38.432;2023-05-16T11:55:24;100796.94;;;30.29;20.20
74552;BME280;63025;55.472;38.432;2023-05-16T11:57:50;100797.56;;;29.78;20.37
74552;BME280;63025;55.472;38.432;2023-05-16T12:00:19;100789.13;;;31.44;19.06
74552;BME280;63025;55.472;38.432;2023-05-16T12:02:46;100794.72;;;31.18;18.74
74552;BME280;63025;55.472;38.432;2023-05-16T12:05:12;100785.13;;;32.17;18.06
74552;BME280;63025;55.472;38.432;2023-05-16T12:07:39;100778.47;;;32.80;18.08
74552;BME280;63025;55.472;38.432;2023-05-16T12:10:09;100786.75;;;32.18;18.04
74552;BME280;63025;55.472;38.432;2023-05-16T12:12:37;100774.25;;;32.74;17.60
74552;BME280;63025;55.472;38.432;2023-05-16T12:15:05;100792.63;;;31.79;18.09
74552;BME280;63025;55.472;38.432;2023-05-16T12:17:32;100788.66;;;31.88;19.04
74552;BME280;63025;55.472;38.432;2023-05-16T12:19:59;100788.50;;;32.23;18.27
74552;BME280;63025;55.472;38.432;2023-05-16T12:22:25;100792.66;;;32.08;18.10
74552;BME280;63025;55.472;38.432;2023-05-16T12:24:50;100784.84;;;33.14;17.71
74552;BME280;63025;55.472;38.432;2023-05-16T12:27:26;100780.84;;;34.42;16.69
74552;BME280;63025;55.472;38.432;2023-05-16T12:29:52;100785.50;;;33.77;17.37
74552;BME280;63025;55.472;38.432;2023-05-16T12:32:21;100778.53;;;33.26;17.44
74552;BME280;63025;55.472;38.432;2023-05-16T12:34:50;100778.91;;;33.36;17.08
74552;BME280;63025;55.472;38.432;2023-05-16T12:37:17;100775.94;;;32.88;17.81
74552;BME280;63025;55.472;38.432;2023-05-16T12:39:43;100776.22;;;34.09;17.55
74552;BME280;63025;55.472;38.432;2023-05-16T12:42:11;100774.56;;;34.45;16.80
74552;BME280;63025;55.472;38.432;2023-05-16T12:44:38;100773.78;;;33.96;16.97
74552;BME280;63025;55.472;38.432;2023-05-16T12:47:10;100762.03;;;33.78;16.62
74552;BME280;63025;55.472;38.432;2023-05-16T12:49:43;100759.47;;;34.46;16.35
74552;BME280;63025;55.472;38.432;2023-05-16T12:52:16;100758.53;;;34.42;16.31
74552;BME280;63025;55.472;38.432;2023-05-16T12:54:43;100765.69;;;34.67;15.92
74552;BME280;63025;55.472;38.432;2023-05-16T12:57:09;100766.88;;;34.54;16.35
74552;BME280;63025;55.472;38.432;2023-05-16T12:59:35;100763.31;;;34.69;16.39
74552;BME280;63025;55.472;38.432;2023-05-16T13:02:02;100758.56;;;33.03;17.36